Time;durP1;ratioP1;P1;durP2;ratioP2;P2;SDS_P1;SDS_P2;PMS_P1;PMS_P2;Temp;Humidity;BMP_temperature;BMP_pressure;BME280_temperature;BME280_humidity;BME280_pressure;Samples;Min_cycle;Max_cycle;Signal;HPM_P1;HPM_P2
2023/04/22 00:01:28;;;;;;;2.75;2.22;;;;;;;15.78;50.53;96485.91;4930523;28;20251;-77
2023/04/22 00:03:54;;;;;;;1.83;1.73;;;;;;;15.84;50.51;96481.31;4930610;28;20827;-77
2023/04/22 00:06:19;;;;;;;1.92;1.50;;;;;;;15.84;50.52;96487.34;4929087;28;20266;-76
2023/04/22 00:08:45;;;;;;;1.90;1.65;;;;;;;15.81;50.40;96489.78;4931745;28;20378;-77
2023/04/22 00:11:10;;;;;;;3.47;1.85;;;;;;;15.88;50.40;96477.81;4913381;28;20252;-77
2023/04/22 00:13:36;;;;;;;1.90;1.67;;;;;;;15.96;50.05;96478.19;4942453;28;20216;-77
2023/04/22 00:16:02;;;;;;;1.70;1.58;;;;;;;15.94;50.05;96477.69;4926373;28;20165;-76
2023/04/22 00:18:28;;;;;;;2.17;2.00;;;;;;;15.97;49.98;96477.09;4962200;28;20278;-76
2023/04/22 00:20:53;;;;;;;1.73;1.63;;;;;;;15.95;49.90;96474.78;4965314;28;20370;-76
2023/04/22 00:23:18;;;;;;;2.13;1.77;;;;;;;15.85;49.60;96462.66;4945751;28;20198;-76
2023/04/22 00:25:44;;;;;;;2.22;1.48;;;;;;;15.88;49.20;96469.91;4940135;28;20247;-76
2023/04/22 00:28:10;;;;;;;2.15;1.60;;;;;;;15.90;49.42;96473.06;4948438;28;20674;-76
2023/04/22 00:30:35;;;;;;;1.92;1.58;;;;;;;15.95;48.90;96474.78;4955320;28;20193;-77
2023/04/22 00:33:00;;;;;;;1.60;1.50;;;;;;;15.97;48.95;96475.28;4949049;28;20312;-76
2023/04/22 00:35:26;;;;;;;2.15;1.40;;;;;;;15.95;49.30;96479.25;4928671;28;20891;-77
2023/04/22 00:37:51;;;;;;;1.58;1.48;;;;;;;15.86;49.09;96474.69;4961520;28;20274;-76
2023/04/22 00:40:17;;;;;;;2.08;1.73;;;;;;;15.85;49.50;96488.91;4973968;28;20657;-77
2023/04/22 00:42:42;;;;;;;1.85;1.70;;;;;;;15.76;49.50;96493.28;4941030;28;20730;-77
2023/04/22 00:45:14;;;;;;;3.35;1.60;;;;;;;15.79;49.43;96486.69;4914843;28;20651;-76
2023/04/22 00:47:40;;;;;;;1.75;1.40;;;;;;;15.83;49.32;96493.66;4927425;28;20180;-76
2023/04/22 00:50:07;;;;;;;2.50;1.60;;;;;;;15.76;49.30;96495.91;4946843;28;20300;-77
2023/04/22 00:52:32;;;;;;;1.92;1.75;;;;;;;15.77;49.47;96494.84;4948011;28;20166;-77
2023/04/22 00:54:58;;;;;;;1.92;1.60;;;;;;;15.82;49.57;96486.88;4928955;28;20249;-76
2023/04/22 00:57:23;;;;;;;2.15;1.77;;;;;;;15.77;49.91;96494.84;4939004;28;20273;-77
2023/04/22 00:59:49;;;;;;;2.58;1.80;;;;;;;15.65;49.96;96489.31;4915218;28;20755;-77
2023/04/22 01:02:14;;;;;;;2.05;1.88;;;;;;;15.51;50.01;96481.44;4927496;28;20208;-77
2023/04/22 01:04:40;;;;;;;1.77;1.67;;;;;;;15.50;50.00;96488.53;4913447;28;20249;-76
2023/04/22 01:07:05;;;;;;;1.80;1.50;;;;;;;15.49;50.26;96484.34;4933752;28;20322;-76
2023/04/22 01:09:31;;;;;;;1.48;1.38;;;;;;;15.58;50.47;96488.94;4930717;28;20292;-77
2023/04/22 01:11:56;;;;;;;2.30;1.60;;;;;;;15.50;49.82;96488.53;4934570;28;20240;-76
2023/04/22 01:14:22;;;;;;;1.65;1.55;;;;;;;15.59;50.30;96487.84;4939068;28;20715;-77
2023/04/22 01:16:49;;;;;;;2.90;1.50;;;;;;;15.61;49.62;96491.75;4947092;28;20221;-76
2023/04/22 01:19:14;;;;;;;1.63;1.52;;;;;;;15.48;50.07;96477.53;4931215;28;20657;-77
2023/04/22 01:21:43;;;;;;;1.90;1.58;;;;;;;15.49;49.81;96479.13;4963423;28;20161;-76
2023/04/22 01:24:09;;;;;;;1.60;1.50;;;;;;;15.47;50.21;96483.09;4929862;28;20184;-76
2023/04/22 01:26:35;;;;;;;2.60;1.77;;;;;;;15.39;50.46;96479.31;4918052;28;20176;-76
2023/04/22 01:29:01;;;;;;;2.67;1.67;;;;;;;15.38;50.23;96487.47;4964004;28;20351;-76
2023/04/22 01:31:28;;;;;;;2.78;1.80;;;;;;;15.35;50.47;96480.94;4942514;28;20307;-77
2023/04/22 01:33:53;;;;;;;1.77;1.67;;;;;;;15.16;51.04;96476.59;4941591;28;20195;-76
2023/04/22 01:36:19;;;;;;;1.77;1.67;;;;;;;15.13;51.41;96479.78;4962296;28;20188;-76
2023/04/22 01:38:44;;;;;;;1.83;1.73;;;;;;;15.11;51.11;96486.38;4973458;28;20210;-76
2023/04/22 01:41:10;;;;;;;1.85;1.70;;;;;;;15.10;51.07;96476.97;4913841;28;20197;-76
2023/04/22 01:43:35;;;;;;;1.60;1.42;;;;;;;15.27;51.08;96476.41;4941651;28;20204;-76
2023/04/22 01:46:01;;;;;;;2.25;1.92;;;;;;;15.10;51.26;96483.00;4926591;28;20169;-76
2023/04/22 01:48:27;;;;;;;2.13;1.92;;;;;;;15.14;51.19;96475.31;4955816;28;20173;-76
2023/04/22 01:50:52;;;;;;;1.83;1.60;;;;;;;15.38;50.58;96490.09;4909761;28;20634;-76
2023/04/22 01:53:17;;;;;;;1.70;1.60;;;;;;;15.32;50.36;96482.31;4927196;28;20274;-76
2023/04/22 01:55:43;;;;;;;2.00;1.80;;;;;;;15.25;51.35;96484.56;4927276;28;20196;-77
2023/04/22 01:58:09;;;;;;;2.85;1.70;;;;;;;15.31;50.57;96483.38;4913257;28;20274;-77
2023/04/22 02:00:35;;;;;;;2.42;1.80;;;;;;;15.26;50.81;96480.09;4925830;28;20200;-76
2023/04/22 02:03:00;;;;;;;3.28;2.05;;;;;;;15.27;50.96;96476.41;4942262;28;20279;-77
2023/04/22 02:05:26;;;;;;;1.70;1.58;;;;;;;15.21;50.98;96483.56;4915286;28;20227;-76
2023/04/22 02:07:52;;;;;;;2.40;1.40;;;;;;;15.24;51.15;96488.25;4917604;28;20193;-76
2023/04/22 02:10:18;;;;;;;2.40;1.83;;;;;;;15.30;50.71;96496.78;4939094;28;20442;-76
2023/04/22 02:12:43;;;;;;;2.28;2.08;;;;;;;15.34;50.32;96492.53;4925755;28;20334;-76
2023/04/22 02:15:09;;;;;;;2.10;1.85;;;;;;;15.29;50.88;96492.63;4958046;28;20317;-76
2023/04/22 02:17:35;;;;;;;1.92;1.83;;;;;;;15.21;50.79;96488.81;4940942;28;20295;-77
2023/04/22 02:20:01;;;;;;;2.13;1.65;;;;;;;15.15;50.79;96479.50;4945590;28;20333;-77
2023/04/22 02:22:28;;;;;;;1.88;1.70;;;;;;;15.02;50.64;96486.28;4921089;28;20220;-76
2023/04/22 02:24:54;;;;;;;2.88;1.77;;;;;;;15.30;50.40;96494.16;4946879;28;20169;-76
2023/04/22 02:27:19;;;;;;;1.73;1.63;;;;;;;15.31;50.22;96493.88;4961037;28;20647;-76
2023/04/22 02:29:44;;;;;;;1.65;1.55;;;;;;;15.31;50.03;96493.88;4961592;28;20265;-76
2023/04/22 02:32:10;;;;;;;1.92;1.75;;;;;;;15.29;50.09;96500.50;4947185;28;20195;-76
2023/04/22 02:34:35;;;;;;;2.38;1.60;;;;;;;15.19;50.08;96503.31;4944484;28;20222;-76
2023/04/22 02:37:01;;;;;;;2.67;2.10;;;;;;;15.09;50.59;96502.41;4966579;28;20265;-76
2023/04/22 02:39:26;;;;;;;1.63;1.40;;;;;;;15.01;50.71;96497.84;4931533;28;20177;-76
2023/04/22 02:41:51;;;;;;;1.92;1.73;;;;;;;14.97;50.75;96505.47;4973843;28;20186;-76
2023/04/22 02:44:17;;;;;;;2.92;1.63;;;;;;;14.93;50.50;96499.28;4980049;28;20408;-76
2023/04/22 02:46:42;;;;;;;1.50;1.40;;;;;;;14.88;50.84;96501.97;4938757;28;20179;-76
2023/04/22 02:49:08;;;;;;;1.98;1.77;;;;;;;14.83;50.46;96501.31;4914670;28;20167;-76
2023/04/22 02:51:33;;;;;;;2.47;1.33;;;;;;;14.78;50.33;96495.06;4958589;28;20101;-76
2023/04/22 02:53:59;;;;;;;1.70;1.60;;;;;;;14.73;51.26;96497.75;4947951;28;20188;-76
2023/04/22 02:56:25;;;;;;;1.90;1.70;;;;;;;14.73;50.64;96500.38;4950271;28;20180;-77
2023/04/22 02:58:51;;;;;;;3.00;1.38;;;;;;;14.81;50.47;96503.44;4949896;28;20392;-76
2023/04/22 03:01:16;;;;;;;1.38;1.25;;;;;;;14.80;50.03;96500.03;4932921;28;20310;-77
2023/04/22 03:03:41;;;;;;;2.03;1.83;;;;;;;14.74;50.71;96501.94;4930190;28;20426;-77
2023/04/22 03:06:07;;;;;;;1.83;1.67;;;;;;;14.86;50.07;96511.22;4924878;28;20540;-76
2023/04/22 03:08:32;;;;;;;2.38;1.48;;;;;;;14.73;50.50;96505.63;4949690;28;20119;-76
2023/04/22 03:10:58;;;;;;;2.13;1.58;;;;;;;14.69;51.11;96506.50;4944892;28;20403;-76
2023/04/22 03:13:23;;;;;;;1.70;1.60;;;;;;;14.51;51.31;96510.69;4931513;28;20482;-77
2023/04/22 03:15:49;;;;;;;1.48;1.38;;;;;;;14.45;51.57;96502.13;4966799;28;20694;-76
2023/04/22 03:18:15;;;;;;;1.90;1.67;;;;;;;14.32;51.38;96505.47;4949338;28;20625;-76
2023/04/22 03:20:40;;;;;;;1.40;1.30;;;;;;;14.23;52.06;96494.84;4966294;28;20546;-76
2023/04/22 03:23:06;;;;;;;2.10;1.45;;;;;;;14.14;52.05;96496.56;4933140;28;20529;-77
2023/04/22 03:25:32;;;;;;;2.03;1.83;;;;;;;14.12;51.78;96493.44;4920791;28;20391;-77
2023/04/22 03:27:57;;;;;;;1.67;1.55;;;;;;;14.10;51.56;96488.47;4983193;28;20395;-77
2023/04/22 03:30:23;;;;;;;1.75;1.42;;;;;;;14.12;51.60;96498.66;4914450;28;20341;-77
2023/04/22 03:32:48;;;;;;;1.70;1.40;;;;;;;14.10;51.24;96493.72;4917649;28;20393;-77
2023/04/22 03:35:14;;;;;;;2.58;1.50;;;;;;;14.05;51.54;96491.97;4968746;28;20181;-76
2023/04/22 03:37:39;;;;;;;2.05;1.70;;;;;;;14.00;51.98;96497.28;4950068;28;20183;-76
2023/04/22 03:40:06;;;;;;;2.55;1.50;;;;;;;13.96;52.07;96495.50;4975633;28;20032;-76
2023/04/22 03:42:31;;;;;;;2.97;1.60;;;;;;;13.98;51.72;96494.16;4931013;28;20297;-76
2023/04/22 03:44:57;;;;;;;1.73;1.40;;;;;;;13.84;51.79;96480.97;4968236;28;20041;-76
2023/04/22 03:47:22;;;;;;;2.58;1.73;;;;;;;13.91;51.49;96478.00;4944479;28;20362;-76
2023/04/22 03:49:48;;;;;;;1.58;1.45;;;;;;;13.98;51.62;96483.69;4949861;28;20177;-77
2023/04/22 03:52:13;;;;;;;1.50;1.38;;;;;;;14.10;50.92;96477.22;4916772;28;20447;-76
2023/04/22 03:54:39;;;;;;;1.67;1.35;;;;;;;14.11;50.88;96473.56;4937674;28;20607;-77
2023/04/22 03:57:05;;;;;;;1.50;1.38;;;;;;;14.08;51.14;96477.50;4910288;28;20086;-76
2023/04/22 03:59:30;;;;;;;2.08;1.40;;;;;;;14.18;51.43;96471.38;4914506;28;20157;-77
2023/04/22 04:01:56;;;;;;;1.52;1.30;;;;;;;14.19;51.31;96472.94;4913426;28;20544;-76
2023/04/22 04:04:22;;;;;;;2.00;1.80;;;;;;;14.18;50.91;96473.97;4917760;28;20227;-76
2023/04/22 04:06:48;;;;;;;2.75;1.40;;;;;;;14.31;50.90;96465.41;4965833;28;20532;-76
2023/04/22 04:09:13;;;;;;;1.30;1.20;;;;;;;14.33;50.54;96465.13;4915330;28;20311;-77
2023/04/22 04:11:39;;;;;;;1.98;1.40;;;;;;;14.17;51.52;96473.22;4978992;28;20381;-76
2023/04/22 04:14:04;;;;;;;2.05;1.30;;;;;;;14.27;51.26;96467.03;4950945;28;20204;-76
2023/04/22 04:16:29;;;;;;;1.40;1.30;;;;;;;14.29;51.19;96462.31;4918069;28;20203;-77
2023/04/22 04:18:55;;;;;;;2.15;1.42;;;;;;;14.34;51.15;96459.59;4950767;28;20249;-77
2023/04/22 04:21:20;;;;;;;1.55;1.30;;;;;;;14.38;51.01;96457.97;4950548;28;20109;-76
2023/04/22 04:23:46;;;;;;;1.52;1.42;;;;;;;14.38;50.81;96451.94;4933856;28;20326;-77
2023/04/22 04:26:13;;;;;;;2.75;1.10;;;;;;;14.43;50.89;96452.66;4945211;28;20384;-76
2023/04/22 04:28:40;;;;;;;2.10;1.50;;;;;;;14.48;50.93;96453.63;4917843;28;20187;-76
2023/04/22 04:31:06;;;;;;;1.25;1.13;;;;;;;14.57;50.60;96457.91;4914967;28;20159;-77
2023/04/22 04:33:31;;;;;;;1.88;1.45;;;;;;;14.61;50.71;96448.44;4943787;28;20565;-76
2023/04/22 04:35:58;;;;;;;1.88;1.50;;;;;;;14.62;50.79;96451.84;4931366;28;20525;-76
2023/04/22 04:38:24;;;;;;;1.50;1.40;;;;;;;14.64;50.40;96456.81;4929442;28;20191;-77
2023/04/22 04:40:50;;;;;;;1.42;1.30;;;;;;;14.57;50.35;96450.06;4929515;28;20236;-76
2023/04/22 04:43:15;;;;;;;1.77;1.15;;;;;;;14.68;50.14;96457.78;4946592;28;20364;-76
2023/04/22 04:45:45;;;;;;;1.65;1.30;;;;;;;14.68;49.91;96450.69;4947170;28;20554;-76
2023/04/22 04:48:15;;;;;;;1.55;1.45;;;;;;;14.82;49.59;96450.72;4979417;28;20362;-76
2023/04/22 04:50:44;;;;;;;1.70;1.30;;;;;;;14.91;49.72;96463.94;4931817;28;20272;-76
2023/04/22 04:53:09;;;;;;;1.98;1.35;;;;;;;14.82;49.71;96460.41;4928386;28;20158;-76
2023/04/22 04:55:35;;;;;;;1.50;1.40;;;;;;;14.85;49.32;96462.47;4946867;28;20392;-76
2023/04/22 04:58:01;;;;;;;3.22;1.58;;;;;;;14.75;49.22;96472.06;4962090;28;20200;-76
2023/04/22 05:00:26;;;;;;;2.42;1.38;;;;;;;14.86;49.52;96477.16;4929958;28;20253;-76
2023/04/22 05:02:52;;;;;;;1.75;1.38;;;;;;;14.94;49.36;96471.22;4945994;28;20227;-76
2023/04/22 05:05:17;;;;;;;1.35;1.20;;;;;;;14.83;49.54;96462.75;4931176;28;20251;-76
2023/04/22 05:07:43;;;;;;;1.52;1.20;;;;;;;14.87;49.87;96476.06;4914031;28;20239;-76
2023/04/22 05:10:09;;;;;;;1.95;1.60;;;;;;;14.92;49.65;96481.22;4963229;28;20200;-76
2023/04/22 05:12:35;;;;;;;2.53;1.73;;;;;;;14.86;50.01;96490.25;4947202;28;20185;-76
2023/04/22 05:15:00;;;;;;;1.55;1.10;;;;;;;14.60;50.42;96490.66;4946212;28;20355;-76
2023/04/22 05:17:26;;;;;;;2.45;1.70;;;;;;;14.50;50.89;96482.94;4944421;28;20279;-76
2023/04/22 05:19:52;;;;;;;1.65;1.55;;;;;;;14.52;51.02;96493.91;4976603;28;20527;-76
2023/04/22 05:22:18;;;;;;;1.38;1.13;;;;;;;14.43;51.04;96494.53;4931619;28;20476;-77
2023/04/22 05:24:43;;;;;;;2.15;1.70;;;;;;;14.41;51.74;96488.03;4964706;28;20448;-75
2023/04/22 05:27:09;;;;;;;1.60;1.50;;;;;;;14.49;51.41;96490.00;4976220;28;20341;-76
2023/04/22 05:29:35;;;;;;;1.38;1.17;;;;;;;14.72;50.85;96495.44;4956564;28;20364;-76
2023/04/22 05:32:00;;;;;;;2.63;1.50;;;;;;;14.84;51.04;96489.72;4931046;28;20315;-76
2023/04/22 05:34:26;;;;;;;1.35;1.20;;;;;;;15.09;49.87;96491.91;4960120;28;20272;-77
2023/04/22 05:36:51;;;;;;;2.13;1.48;;;;;;;15.24;50.23;96495.34;4946017;28;20530;-76
2023/04/22 05:39:17;;;;;;;1.50;1.40;;;;;;;15.46;50.76;96490.19;4957472;28;20204;-76
2023/04/22 05:41:42;;;;;;;1.25;1.15;;;;;;;15.53;50.08;96493.19;4943034;28;20199;-77
2023/04/22 05:44:08;;;;;;;1.50;1.40;;;;;;;15.70;49.06;96491.81;4940143;28;20185;-76
2023/04/22 05:46:33;;;;;;;1.40;1.30;;;;;;;15.86;48.82;96498.31;4919994;28;20366;-76
2023/04/22 05:48:59;;;;;;;2.45;1.60;;;;;;;16.05;49.34;96489.53;4963711;28;20408;-77
2023/04/22 05:51:24;;;;;;;2.13;1.25;;;;;;;16.18;48.93;96487.97;4945351;28;20421;-77
2023/04/22 05:53:50;;;;;;;1.52;1.42;;;;;;;16.53;47.98;96488.97;4979828;28;20161;-77
2023/04/22 05:56:15;;;;;;;2.22;1.20;;;;;;;16.70;48.18;96484.91;4963344;28;20063;-76
2023/04/22 05:58:41;;;;;;;1.70;1.42;;;;;;;16.98;46.39;96494.22;4946782;28;20148;-76
2023/04/22 06:01:06;;;;;;;1.80;0.90;;;;;;;17.27;46.50;96494.78;4933599;28;20277;-76
2023/04/22 06:03:32;;;;;;;1.55;1.25;;;;;;;17.58;45.38;96487.63;4980299;28;20362;-76
2023/04/22 06:05:57;;;;;;;1.90;1.48;;;;;;;17.86;45.47;96476.06;4975791;28;20409;-77
2023/04/22 06:08:23;;;;;;;2.67;1.02;;;;;;;18.03;43.64;96473.47;4914414;28;20292;-76
2023/04/22 06:10:49;;;;;;;1.40;1.25;;;;;;;18.06;42.93;96483.38;4961712;28;20419;-76
2023/04/22 06:13:14;;;;;;;1.60;1.20;;;;;;;17.66;44.85;96475.53;4963660;28;20098;-77
2023/04/22 06:15:40;;;;;;;2.22;1.15;;;;;;;17.92;43.67;96480.09;4924345;28;20219;-76
2023/04/22 06:18:05;;;;;;;2.00;1.30;;;;;;;18.05;42.81;96481.81;4944963;28;20173;-77
2023/04/22 06:20:34;;;;;;;1.48;1.25;;;;;;;18.12;43.45;96484.75;4976251;28;20314;-76
2023/04/22 06:23:00;;;;;;;1.70;1.20;;;;;;;18.02;42.01;96479.81;4930455;28;20393;-76
2023/04/22 06:25:26;;;;;;;2.28;1.80;;;;;;;18.20;42.47;96487.69;4930291;28;20461;-76
2023/04/22 06:27:51;;;;;;;2.20;1.58;;;;;;;18.42;42.26;96492.84;4915522;28;20347;-76
2023/04/22 06:30:17;;;;;;;2.47;1.77;;;;;;;18.69;42.31;96494.31;4942531;28;20404;-77
2023/04/22 06:32:42;;;;;;;1.88;1.70;;;;;;;18.72;42.03;96487.66;4914603;28;20215;-76
2023/04/22 06:35:08;;;;;;;1.90;1.20;;;;;;;18.58;41.46;96481.81;4942007;28;20563;-76
2023/04/22 06:37:33;;;;;;;1.35;1.10;;;;;;;18.56;42.33;96487.38;4933085;28;20083;-76
2023/04/22 06:39:59;;;;;;;1.50;1.40;;;;;;;18.64;42.58;96494.47;4930460;28;20391;-77
2023/04/22 06:42:24;;;;;;;1.17;1.08;;;;;;;18.74;42.04;96501.28;4976696;28;20393;-76
2023/04/22 06:44:50;;;;;;;2.08;1.40;;;;;;;18.76;41.56;96501.75;4932046;28;20396;-76
2023/04/22 06:47:16;;;;;;;0.98;0.98;;;;;;;18.87;40.95;96489.06;4939665;28;20425;-76
2023/04/22 06:49:42;;;;;;;1.20;1.10;;;;;;;19.17;40.06;96489.88;4944106;28;20595;-76
2023/04/22 06:52:08;;;;;;;1.48;1.30;;;;;;;19.40;39.75;96484.34;4976728;28;20344;-76
2023/04/22 06:54:33;;;;;;;1.30;1.20;;;;;;;19.64;40.82;96495.09;4944958;28;20355;-76
2023/04/22 06:56:59;;;;;;;1.98;1.33;;;;;;;20.01;40.53;96495.38;4945498;28;20366;-75
2023/04/22 06:59:24;;;;;;;1.25;1.15;;;;;;;20.25;38.67;96485.97;4929847;28;20194;-76
2023/04/22 07:01:49;;;;;;;0.95;0.95;;;;;;;20.38;37.75;96492.13;4945140;28;20374;-76
2023/04/22 07:04:15;;;;;;;1.23;1.13;;;;;;;20.67;38.02;96496.53;4945666;28;20198;-76
2023/04/22 07:06:42;;;;;;;1.38;1.20;;;;;;;20.67;37.35;96495.78;4964740;28;20021;-76
2023/04/22 07:09:08;;;;;;;1.40;1.20;;;;;;;20.95;37.51;96494.06;4943828;28;20052;-76
2023/04/22 07:11:34;;;;;;;2.03;1.45;;;;;;;20.87;36.39;96505.53;4940205;28;20493;-76
2023/04/22 07:13:59;;;;;;;1.52;1.00;;;;;;;20.97;38.17;96504.31;4948483;28;20028;-76
2023/04/22 07:16:25;;;;;;;1.20;1.10;;;;;;;21.13;36.66;96502.59;4916411;28;20037;-75
2023/04/22 07:18:51;;;;;;;1.65;1.55;;;;;;;21.29;36.76;96489.47;4949559;28;20390;-75
2023/04/22 07:21:16;;;;;;;1.40;1.30;;;;;;;21.42;36.68;96497.41;4979690;28;20677;-76
2023/04/22 07:23:42;;;;;;;1.58;1.13;;;;;;;21.26;35.68;96494.66;4933275;28;20499;-76
2023/04/22 07:26:07;;;;;;;1.17;0.95;;;;;;;21.51;35.76;96495.47;4912824;28;20439;-75
2023/04/22 07:28:33;;;;;;;1.75;1.17;;;;;;;21.28;36.65;96497.75;4914831;28;20448;-76
2023/04/22 07:30:58;;;;;;;1.17;1.08;;;;;;;21.40;34.62;96497.72;4945644;28;20385;-75
2023/04/22 07:33:24;;;;;;;1.20;1.10;;;;;;;21.46;34.57;96495.66;4945782;28;20308;-76
2023/04/22 07:35:49;;;;;;;0.85;0.85;;;;;;;21.54;35.40;96489.50;4963720;28;20422;-76
2023/04/22 07:38:15;;;;;;;1.17;1.08;;;;;;;21.74;35.58;96487.81;4945526;28;20200;-76
2023/04/22 07:40:40;;;;;;;1.67;1.17;;;;;;;22.05;35.22;96486.41;4930888;28;20190;-76
2023/04/22 07:43:06;;;;;;;0.90;0.90;;;;;;;22.44;35.05;96486.75;4948503;28;20405;-76
2023/04/22 07:45:31;;;;;;;1.45;1.35;;;;;;;22.61;34.28;96486.47;4913732;28;20161;-75
2023/04/22 07:47:57;;;;;;;1.25;1.15;;;;;;;;;;4912711;28;20184;-76
2023/04/22 07:50:23;;;;;;;1.73;1.63;;;;;;;23.15;35.08;96497.66;4958702;28;20521;-76
2023/04/22 07:52:48;;;;;;;2.95;1.23;;;;;;;22.79;32.82;96488.78;4912839;28;20111;-75
2023/04/22 07:55:14;;;;;;;1.65;1.40;;;;;;;23.18;33.59;96486.38;4977192;28;20104;-75
2023/04/22 07:57:42;;;;;;;2.67;1.48;;;;;;;23.38;32.57;96485.31;4945033;28;20511;-75
2023/04/22 08:00:08;;;;;;;2.40;1.38;;;;;;;23.34;32.76;96487.13;4920262;28;20151;-76
2023/04/22 08:02:34;;;;;;;5.32;1.55;;;;;;;23.24;31.28;96484.25;4932818;28;20425;-76
2023/04/22 08:05:00;;;;;;;1.70;1.60;;;;;;;23.53;33.29;96485.66;4915598;28;20524;-77
2023/04/22 08:07:25;;;;;;;1.80;1.70;;;;;;;23.24;31.31;96489.56;4963874;28;20400;-75
2023/04/22 08:09:54;;;;;;;1.05;1.05;;;;;;;23.38;33.55;96480.00;4934403;28;20207;-76
2023/04/22 08:12:20;;;;;;;1.60;1.40;;;;;;;23.53;32.11;96480.34;4929507;28;20415;-76
2023/04/22 08:14:45;;;;;;;1.70;1.60;;;;;;;23.35;31.40;96477.28;4945664;28;20661;-76
2023/04/22 08:17:11;;;;;;;1.40;1.30;;;;;;;23.61;31.29;96482.03;4930702;28;20452;-76
2023/04/22 08:19:36;;;;;;;1.67;1.58;;;;;;;23.52;31.81;96474.25;4928620;28;20562;-76
2023/04/22 08:22:02;;;;;;;1.42;1.33;;;;;;;23.78;31.48;96480.09;4963329;28;20334;-76
2023/04/22 08:24:27;;;;;;;1.58;1.48;;;;;;;23.94;31.53;96483.53;4931739;28;20130;-76
2023/04/22 08:26:53;;;;;;;1.30;1.20;;;;;;;23.66;31.82;96478.34;4960138;28;20342;-76
2023/04/22 08:29:18;;;;;;;1.40;1.30;;;;;;;23.32;31.23;96481.41;4910873;28;20207;-76
2023/04/22 08:31:43;;;;;;;2.03;1.50;;;;;;;23.34;32.40;96481.06;4912799;28;20351;-75
2023/04/22 08:34:09;;;;;;;2.03;1.30;;;;;;;23.02;33.30;96475.72;4977449;28;20496;-76
2023/04/22 08:36:34;;;;;;;1.75;1.60;;;;;;;23.55;31.57;96472.78;4945546;28;20211;-77
2023/04/22 08:39:03;;;;;;;1.60;1.50;;;;;;;23.30;33.48;96474.88;4963299;28;20323;-75
2023/04/22 08:41:29;;;;;;;2.00;1.80;;;;;;;23.21;33.10;96479.59;4929541;28;20455;-76
2023/04/22 08:43:55;;;;;;;1.50;1.40;;;;;;;23.07;31.86;96477.38;4935834;28;20060;-76
2023/04/22 08:46:22;;;;;;;1.40;1.25;;;;;;;23.52;31.68;96481.44;4945200;28;20154;-76
2023/04/22 08:48:49;;;;;;;1.55;1.35;;;;;;;23.98;31.95;96483.59;4946288;28;20366;-75
2023/04/22 08:51:15;;;;;;;2.35;1.58;;;;;;;23.59;31.20;96478.94;4973051;28;20426;-76
2023/04/22 08:53:42;;;;;;;1.40;1.30;;;;;;;23.95;30.67;96476.31;4929386;28;20411;-76
2023/04/22 08:56:08;;;;;;;1.80;1.58;;;;;;;24.18;32.47;96481.72;4925962;28;20199;-75
2023/04/22 08:58:34;;;;;;;1.40;1.30;;;;;;;23.79;30.29;96471.03;4937622;28;20219;-76
2023/04/22 09:01:00;;;;;;;2.25;1.40;;;;;;;23.74;31.83;96464.84;4945364;28;20817;-76
2023/04/22 09:03:25;;;;;;;1.80;1.70;;;;;;;24.30;30.72;96465.63;4932884;28;20523;-76
2023/04/22 09:05:52;;;;;;;1.17;1.17;;;;;;;24.49;30.83;96462.94;4946892;28;20337;-75
2023/04/22 09:08:18;;;;;;;1.60;1.50;;;;;;;24.91;30.60;96458.72;4932210;28;20200;-77
2023/04/22 09:10:44;;;;;;;1.70;1.60;;;;;;;24.91;29.95;96463.28;4929603;28;20468;-75
2023/04/22 09:13:09;;;;;;;2.38;1.52;;;;;;;25.18;30.15;96453.44;4914780;28;20370;-76
2023/04/22 09:15:35;;;;;;;1.92;1.50;;;;;;;25.20;29.27;96445.84;4916257;28;20385;-77
2023/04/22 09:18:02;;;;;;;1.70;1.60;;;;;;;25.01;29.30;96449.38;4928225;28;20435;-76
2023/04/22 09:20:29;;;;;;;1.88;1.30;;;;;;;25.00;30.51;96435.28;4936143;28;20178;-76
2023/04/22 09:22:56;;;;;;;1.70;1.58;;;;;;;25.21;27.60;96418.09;4917192;28;20389;-76
2023/04/22 09:25:24;;;;;;;1.60;1.50;;;;;;;25.35;28.48;96425.56;4944527;28;20370;-76
2023/04/22 09:27:59;;;;;;;1.98;1.40;;;;;;;24.64;28.28;96431.25;4910603;28;20219;-75
2023/04/22 09:30:29;;;;;;;2.38;1.52;;;;;;;24.66;28.00;96435.13;4911598;28;20248;-76
2023/04/22 09:33:00;;;;;;;1.77;1.67;;;;;;;24.49;30.01;96441.63;4930007;28;20637;-76
2023/04/22 09:35:30;;;;;;;2.50;2.38;;;;;;;24.13;29.95;96442.88;4953351;28;20358;-76
2023/04/22 09:38:00;;;;;;;1.58;1.48;;;;;;;24.25;31.02;96449.94;4920418;28;20563;-76
2023/04/22 09:40:26;;;;;;;2.65;1.65;;;;;;;24.50;28.82;96439.75;4960858;28;20222;-76
2023/04/22 09:42:54;;;;;;;2.10;1.88;;;;;;;23.96;29.79;96444.06;4942963;28;20041;-75
2023/04/22 09:45:37;;;;;;;1.55;1.45;;;;;;;24.71;30.19;96435.94;4933771;28;20239;-75
2023/04/22 09:48:08;;;;;;;1.83;1.60;;;;;;;25.10;29.13;96439.22;4944234;28;20240;-76
2023/04/22 09:50:33;;;;;;;2.22;1.60;;;;;;;25.20;29.32;96445.84;4941842;28;20491;-75
2023/04/22 09:53:04;;;;;;;2.60;1.48;;;;;;;25.67;29.02;96443.88;4938961;28;20439;-76
2023/04/22 09:55:33;;;;;;;2.40;1.60;;;;;;;25.66;29.96;96435.13;4945528;28;20414;-77
2023/04/22 09:58:04;;;;;;;2.22;1.85;;;;;;;25.36;27.22;96435.88;4944379;28;20500;-75
2023/04/22 10:00:30;;;;;;;1.73;1.63;;;;;;;25.51;28.21;96436.06;4940534;28;20405;-75
2023/04/22 10:02:55;;;;;;;1.80;1.70;;;;;;;25.93;28.24;96446.50;4945637;28;20079;-76
2023/04/22 10:05:21;;;;;;;2.38;1.45;;;;;;;26.00;28.02;96434.41;4946193;28;20681;-76
2023/04/22 10:07:46;;;;;;;1.73;1.63;;;;;;;26.10;28.94;96434.53;4915165;28;20425;-76
2023/04/22 10:10:12;;;;;;;2.40;2.20;;;;;;;26.24;27.84;96430.50;4964001;28;20341;-77
2023/04/22 10:12:38;;;;;;;1.85;1.75;;;;;;;25.48;30.32;96432.22;4946574;28;20289;-76
2023/04/22 10:15:05;;;;;;;2.83;2.00;;;;;;;25.48;29.66;96437.56;4939396;28;20562;-76
2023/04/22 10:17:32;;;;;;;2.08;1.98;;;;;;;25.36;28.62;96435.06;4946516;28;20664;-76
2023/04/22 10:20:02;;;;;;;2.10;2.00;;;;;;;25.03;30.10;96434.56;4931417;28;20276;-75
2023/04/22 10:22:28;;;;;;;1.88;1.77;;;;;;;24.97;30.28;96440.56;4932038;28;20041;-76
2023/04/22 10:24:56;;;;;;;2.45;2.22;;;;;;;24.43;30.46;96445.69;4910916;28;20195;-75
2023/04/22 10:27:22;;;;;;;2.50;1.70;;;;;;;24.58;30.40;96443.34;4927613;28;20268;-76
2023/04/22 10:29:47;;;;;;;1.77;1.67;;;;;;;24.43;29.04;96443.03;4925499;28;20317;-75
2023/04/22 10:32:16;;;;;;;3.08;1.50;;;;;;;24.45;30.45;96446.13;4946284;28;20165;-76
2023/04/22 10:34:42;;;;;;;3.15;1.90;;;;;;;23.96;30.08;96444.06;4947957;28;20489;-76
2023/04/22 10:37:12;;;;;;;1.45;1.30;;;;;;;24.10;29.34;96443.56;4963461;28;20487;-77
2023/04/22 10:39:41;;;;;;;1.75;1.65;;;;;;;23.69;30.50;96446.53;4936457;28;20135;-77
2023/04/22 10:42:16;;;;;;;2.05;1.40;;;;;;;23.62;30.99;96451.69;4918178;28;21230;-76
2023/04/22 10:44:59;;;;;;;1.83;1.33;;;;;;;23.26;30.94;96439.50;4913693;28;20219;-76
2023/04/22 10:47:36;;;;;;;2.05;1.85;;;;;;;23.58;30.73;96447.41;4936533;28;20362;-77
2023/04/22 10:50:11;;;;;;;2.17;1.90;;;;;;;23.73;30.99;96447.38;4930779;28;20570;-76
2023/04/22 10:52:37;;;;;;;3.13;1.58;;;;;;;23.89;31.44;96443.94;4925833;28;20381;-77
2023/04/22 10:55:03;;;;;;;1.50;1.40;;;;;;;23.84;29.64;96442.31;4928344;28;20041;-75
2023/04/22 10:57:39;;;;;;;1.85;1.75;;;;;;;23.81;30.49;96450.19;4944107;28;20483;-76
2023/04/22 11:00:33;;;;;;;1.95;1.75;;;;;;;24.08;31.71;96443.91;4930970;28;20458;-76
2023/04/22 11:03:03;;;;;;;1.60;1.50;;;;;;;24.45;28.38;96438.16;4940994;28;20044;-76
2023/04/22 11:05:29;;;;;;;1.88;1.77;;;;;;;24.49;29.19;96438.97;4961341;28;20185;-76
2023/04/22 11:07:57;;;;;;;2.35;1.75;;;;;;;24.79;28.14;96438.38;4917169;28;20212;-76
2023/04/22 11:10:33;;;;;;;3.45;1.40;;;;;;;24.70;30.28;96445.81;4964489;28;20386;-76
2023/04/22 11:13:00;;;;;;;2.55;1.52;;;;;;;24.73;29.62;96454.97;4922781;28;20101;-77
2023/04/22 11:15:26;;;;;;;1.92;1.38;;;;;;;24.40;29.69;96443.78;4949034;28;20481;-75
2023/04/22 11:17:53;;;;;;;2.50;1.33;;;;;;;23.72;30.21;96450.38;4967110;28;20389;-75
2023/04/22 11:20:19;;;;;;;2.08;1.73;;;;;;;23.53;31.38;96443.91;4915749;28;20726;-76
2023/04/22 11:22:47;;;;;;;2.75;1.58;;;;;;;23.47;30.13;96452.50;4948883;28;20224;-76
2023/04/22 11:25:13;;;;;;;4.03;1.77;;;;;;;23.03;31.84;96463.22;4961161;28;20244;-76
2023/04/22 11:27:40;;;;;;;2.30;2.10;;;;;;;23.10;31.72;96452.78;4948563;28;20270;-76
2023/04/22 11:30:13;;;;;;;1.60;1.45;;;;;;;23.10;32.72;96468.72;4943352;28;20196;-76